sensor_id;sensor_type;location;lat;lon;timestamp;pressure;altitude;pressure_sealevel;temperature;humidity
55675;BME280;41562;44.330;23.802;2023-03-16T00:00:10;99345.41;;;8.66;100.00
55675;BME280;41562;44.330;23.802;2023-03-16T00:02:55;99352.63;;;8.60;100.00
55675;BME280;41562;44.330;23.802;2023-03-16T00:05:23;99346.53;;;8.60;100.00
55675;BME280;41562;44.330;23.802;2023-03-16T00:07:50;99348.56;;;8.68;99.97
55675;BME280;41562;44.330;23.802;2023-03-16T00:10:18;99339.84;;;8.62;100.00
55675;BME280;41562;44.330;23.802;2023-03-16T00:12:45;99345.97;;;8.63;100.00
55675;BME280;41562;44.330;23.802;2023-03-16T00:15:12;99352.03;;;8.68;100.00
55675;BME280;41562;44.330;23.802;2023-03-16T00:17:41;99356.09;;;8.61;100.00
55675;BME280;41562;44.330;23.802;2023-03-16T00:20:15;99357.19;;;8.60;100.00
55675;BME280;41562;44.330;23.802;2023-03-16T00:22:45;99356.66;;;8.58;100.00
55675;BME280;41562;44.330;23.802;2023-03-16T00:25:15;99351.78;;;8.70;100.00
55675;BME280;41562;44.330;23.802;2023-03-16T00:27:45;99353.34;;;8.71;100.00
55675;BME280;41562;44.330;23.802;2023-03-16T00:30:13;99360.84;;;8.69;100.00
55675;BME280;41562;44.330;23.802;2023-03-16T00:32:40;99354.97;;;8.67;100.00
55675;BME280;41562;44.330;23.802;2023-03-16T00:35:07;99354.44;;;8.70;100.00
55675;BME280;41562;44.330;23.802;2023-03-16T00:37:36;99362.63;;;8.44;100.00
55675;BME280;41562;44.330;23.802;2023-03-16T00:40:03;99372.13;;;8.56;100.00
55675;BME280;41562;44.330;23.802;2023-03-16T00:42:31;99374.19;;;8.64;100.00
55675;BME280;41562;44.330;23.802;2023-03-16T00:45:00;99374.75;;;8.61;100.00
55675;BME280;41562;44.330;23.802;2023-03-16T00:47:34;99382.16;;;8.69;99.95
55675;BME280;41562;44.330;23.802;2023-03-16T00:50:04;99381.59;;;8.72;100.00
55675;BME280;41562;44.330;23.802;2023-03-16T00:52:32;99376.28;;;8.72;100.00
55675;BME280;41562;44.330;23.802;2023-03-16T00:54:59;99380.00;;;8.71;99.82
55675;BME280;41562;44.330;23.802;2023-03-16T00:57:27;99386.59;;;8.44;100.00
55675;BME280;41562;44.330;23.802;2023-03-16T00:59:54;99374.28;;;8.54;100.00
55675;BME280;41562;44.330;23.802;2023-03-16T01:02:21;99372.22;;;8.45;100.00
55675;BME280;41562;44.330;23.802;2023-03-16T01:04:50;99377.59;;;8.35;100.00
55675;BME280;41562;44.330;23.802;2023-03-16T01:07:18;99374.44;;;8.33;100.00
55675;BME280;41562;44.330;23.802;2023-03-16T01:09:51;99385.88;;;8.29;100.00
55675;BME280;41562;44.330;23.802;2023-03-16T01:12:23;99380.47;;;8.44;100.00
55675;BME280;41562;44.330;23.802;2023-03-16T01:14:57;99382.97;;;8.30;100.00
55675;BME280;41562;44.330;23.802;2023-03-16T01:17:24;99383.56;;;8.17;100.00
55675;BME280;41562;44.330;23.802;2023-03-16T01:19:51;99386.69;;;8.34;100.00
55675;BME280;41562;44.330;23.802;2023-03-16T01:22:19;99389.34;;;8.29;100.00
55675;BME280;41562;44.330;23.802;2023-03-16T01:24:46;99391.81;;;8.21;100.00
55675;BME280;41562;44.330;23.802;2023-03-16T01:27:13;99392.66;;;8.11;100.00
55675;BME280;41562;44.330;23.802;2023-03-16T01:29:45;99400.59;;;8.16;100.00
55675;BME280;41562;44.330;23.802;2023-03-16T01:32:15;99394.25;;;8.12;100.00
55675;BME280;41562;44.330;23.802;2023-03-16T01:34:44;99408.59;;;8.21;100.00
55675;BME280;41562;44.330;23.802;2023-03-16T01:37:11;99410.16;;;8.22;100.00
55675;BME280;41562;44.330;23.802;2023-03-16T01:39:41;99419.72;;;8.33;100.00
55675;BME280;41562;44.330;23.802;2023-03-16T01:42:12;99426.34;;;8.36;97.97
55675;BME280;41562;44.330;23.802;2023-03-16T01:47:55;99429.81;;;8.36;95.24
55675;BME280;41562;44.330;23.802;2023-03-16T01:50:26;99431.91;;;8.44;95.41
55675;BME280;41562;44.330;23.802;2023-03-16T01:52:53;99438.59;;;8.37;94.76
55675;BME280;41562;44.330;23.802;2023-03-16T01:55:24;99432.88;;;8.54;92.54
55675;BME280;41562;44.330;23.802;2023-03-16T01:57:51;99440.47;;;8.36;92.60
55675;BME280;41562;44.330;23.802;2023-03-16T02:00:19;99440.41;;;8.41;93.25
55675;BME280;41562;44.330;23.802;2023-03-16T02:02:50;99445.28;;;8.34;91.23
55675;BME280;41562;44.330;23.802;2023-03-16T02:05:29;99443.69;;;8.33;91.18
55675;BME280;41562;44.330;23.802;2023-03-16T02:08:00;99455.41;;;8.27;90.96
55675;BME280;41562;44.330;23.802;2023-03-16T02:10:28;99451.66;;;8.38;96.18
55675;BME280;41562;44.330;23.802;2023-03-16T02:13:00;99451.72;;;8.18;90.82
55675;BME280;41562;44.330;23.802;2023-03-16T02:15:27;99457.13;;;7.98;91.57
55675;BME280;41562;44.330;23.802;2023-03-16T02:17:55;99463.81;;;7.90;92.26
55675;BME280;41562;44.330;23.802;2023-03-16T02:20:41;99468.56;;;7.98;93.49
55675;BME280;41562;44.330;23.802;2023-03-16T02:23:19;99467.28;;;7.91;92.94
55675;BME280;41562;44.330;23.802;2023-03-16T02:26:20;99468.84;;;7.97;91.59
55675;BME280;41562;44.330;23.802;2023-03-16T02:31:59;99483.47;;;8.04;90.57
55675;BME280;41562;44.330;23.802;2023-03-16T02:34:27;99482.97;;;7.97;90.93
55675;BME280;41562;44.330;23.802;2023-03-16T02:36:55;99485.91;;;7.91;90.93
55675;BME280;41562;44.330;23.802;2023-03-16T02:39:28;99482.47;;;7.85;89.16
55675;BME280;41562;44.330;23.802;2023-03-16T02:41:56;99489.91;;;7.93;89.25
55675;BME280;41562;44.330;23.802;2023-03-16T02:44:29;99489.16;;;7.73;90.09
55675;BME280;41562;44.330;23.802;2023-03-16T02:47:02;99494.38;;;8.08;88.04
55675;BME280;41562;44.330;23.802;2023-03-16T02:49:45;99498.47;;;7.75;92.34
55675;BME280;41562;44.330;23.802;2023-03-16T02:52:15;99497.91;;;7.88;90.13
55675;BME280;41562;44.330;23.802;2023-03-16T02:54:45;99503.78;;;7.80;89.13
55675;BME280;41562;44.330;23.802;2023-03-16T02:57:15;99505.41;;;7.66;89.57
55675;BME280;41562;44.330;23.802;2023-03-16T02:59:42;99516.06;;;7.61;92.57
55675;BME280;41562;44.330;23.802;2023-03-16T03:02:09;99509.16;;;7.55;89.01
55675;BME280;41562;44.330;23.802;2023-03-16T03:04:37;99521.59;;;7.85;87.64
55675;BME280;41562;44.330;23.802;2023-03-16T03:07:06;99525.38;;;7.63;87.54
55675;BME280;41562;44.330;23.802;2023-03-16T03:09:38;99524.81;;;7.66;87.31
55675;BME280;41562;44.330;23.802;2023-03-16T03:12:05;99517.91;;;7.76;90.40
55675;BME280;41562;44.330;23.802;2023-03-16T03:14:32;99532.03;;;7.61;88.59
55675;BME280;41562;44.330;23.802;2023-03-16T03:17:00;99531.78;;;7.37;89.97
55675;BME280;41562;44.330;23.802;2023-03-16T03:19:30;99527.25;;;7.43;89.88
55675;BME280;41562;44.330;23.802;2023-03-16T03:21:57;99531.25;;;7.50;90.25
55675;BME280;41562;44.330;23.802;2023-03-16T03:24:30;99535.75;;;7.60;88.18
55675;BME280;41562;44.330;23.802;2023-03-16T03:26:59;99540.31;;;7.39;89.48
55675;BME280;41562;44.330;23.802;2023-03-16T03:29:30;99538.72;;;7.38;89.52
55675;BME280;41562;44.330;23.802;2023-03-16T03:31:57;99551.47;;;7.51;91.11
55675;BME280;41562;44.330;23.802;2023-03-16T03:34:29;99557.84;;;7.30;89.24
55675;BME280;41562;44.330;23.802;2023-03-16T03:36:57;99552.00;;;7.13;90.29
55675;BME280;41562;44.330;23.802;2023-03-16T03:39:25;99550.41;;;7.37;94.59
55675;BME280;41562;44.330;23.802;2023-03-16T03:41:52;99554.13;;;7.51;92.98
55675;BME280;41562;44.330;23.802;2023-03-16T03:44:21;99557.31;;;7.48;88.12
55675;BME280;41562;44.330;23.802;2023-03-16T03:47:01;99560.50;;;7.35;88.00
55675;BME280;41562;44.330;23.802;2023-03-16T03:49:28;99563.69;;;7.37;87.45
55675;BME280;41562;44.330;23.802;2023-03-16T03:51:56;99561.84;;;7.33;90.49
55675;BME280;41562;44.330;23.802;2023-03-16T03:54:24;99561.03;;;7.22;89.44
55675;BME280;41562;44.330;23.802;2023-03-16T03:56:55;99561.00;;;7.73;93.98
55675;BME280;41562;44.330;23.802;2023-03-16T03:59:24;99566.41;;;9.64;81.55
55675;BME280;41562;44.330;23.802;2023-03-16T04:01:53;99572.63;;;10.60;76.56
55675;BME280;41562;44.330;23.802;2023-03-16T04:04:28;99566.41;;;11.02;74.68
55675;BME280;41562;44.330;23.802;2023-03-16T04:06:59;99570.09;;;11.24;70.38
55675;BME280;41562;44.330;23.802;2023-03-16T04:09:28;99572.69;;;9.15;78.08
55675;BME280;41562;44.330;23.802;2023-03-16T04:11:57;99577.75;;;8.68;81.00
55675;BME280;41562;44.330;23.802;2023-03-16T04:14:24;99573.19;;;8.09;83.71
55675;BME280;41562;44.330;23.802;2023-03-16T04:17:02;99573.16;;;8.14;84.63
55675;BME280;41562;44.330;23.802;2023-03-16T04:19:29;99578.03;;;10.31;81.20
55675;BME280;41562;44.330;23.802;2023-03-16T04:21:57;99577.47;;;9.52;77.15
55675;BME280;41562;44.330;23.802;2023-03-16T04:24:31;99574.72;;;8.40;83.36
55675;BME280;41562;44.330;23.802;2023-03-16T04:27:03;99583.78;;;9.90;82.03
55675;BME280;41562;44.330;23.802;2023-03-16T04:29:31;99584.31;;;11.71;71.97
55675;BME280;41562;44.330;23.802;2023-03-16T04:31:58;99587.19;;;12.07;72.68
55675;BME280;41562;44.330;23.802;2023-03-16T04:34:26;99582.16;;;11.22;69.99
55675;BME280;41562;44.330;23.802;2023-03-16T04:36:56;99581.13;;;9.27;77.79
55675;BME280;41562;44.330;23.802;2023-03-16T04:39:32;99591.13;;;8.63;88.15
55675;BME280;41562;44.330;23.802;2023-03-16T04:42:00;99585.38;;;8.25;86.92
55675;BME280;41562;44.330;23.802;2023-03-16T04:44:27;99582.03;;;7.89;91.68
55675;BME280;41562;44.330;23.802;2023-03-16T04:46:55;99598.25;;;7.67;91.99
55675;BME280;41562;44.330;23.802;2023-03-16T04:49:30;99588.69;;;7.56;92.31
55675;BME280;41562;44.330;23.802;2023-03-16T04:51:58;99596.41;;;7.53;96.54
55675;BME280;41562;44.330;23.802;2023-03-16T04:54:28;99595.91;;;7.46;93.02
55675;BME280;41562;44.330;23.802;2023-03-16T04:56:58;99603.06;;;7.35;94.00
55675;BME280;41562;44.330;23.802;2023-03-16T04:59:29;99612.63;;;7.31;95.85
55675;BME280;41562;44.330;23.802;2023-03-16T05:02:18;99612.88;;;7.35;92.88
55675;BME280;41562;44.330;23.802;2023-03-16T05:04:53;99610.50;;;7.18;95.82
55675;BME280;41562;44.330;23.802;2023-03-16T05:07:21;99618.47;;;7.08;95.80
55675;BME280;41562;44.330;23.802;2023-03-16T05:09:49;99617.94;;;7.26;100.00
55675;BME280;41562;44.330;23.802;2023-03-16T05:12:23;99624.28;;;7.15;97.10
55675;BME280;41562;44.330;23.802;2023-03-16T05:14:51;99624.59;;;7.23;96.25
55675;BME280;41562;44.330;23.802;2023-03-16T05:17:21;99631.22;;;7.21;98.69
55675;BME280;41562;44.330;23.802;2023-03-16T05:19:54;99640.78;;;7.12;97.84
55675;BME280;41562;44.330;23.802;2023-03-16T05:22:22;99648.75;;;7.02;96.64
55675;BME280;41562;44.330;23.802;2023-03-16T05:25:06;99653.50;;;7.00;98.17
55675;BME280;41562;44.330;23.802;2023-03-16T05:28:13;99653.31;;;7.26;96.54
55675;BME280;41562;44.330;23.802;2023-03-16T05:30:41;99660.25;;;7.38;94.41
55675;BME280;41562;44.330;23.802;2023-03-16T05:33:08;99666.50;;;6.96;96.20
55675;BME280;41562;44.330;23.802;2023-03-16T05:35:52;99671.06;;;7.01;96.58
55675;BME280;41562;44.330;23.802;2023-03-16T05:38:23;99668.44;;;7.16;99.29
55675;BME280;41562;44.330;23.802;2023-03-16T05:40:54;99670.28;;;7.10;96.63
55675;BME280;41562;44.330;23.802;2023-03-16T05:43:27;99671.31;;;6.94;96.99
55675;BME280;41562;44.330;23.802;2023-03-16T05:45:57;99675.59;;;7.10;96.20
55675;BME280;41562;44.330;23.802;2023-03-16T05:48:31;99670.53;;;7.09;98.75
55675;BME280;41562;44.330;23.802;2023-03-16T05:51:05;99677.69;;;7.08;97.34
55675;BME280;41562;44.330;23.802;2023-03-16T05:53:32;99675.34;;;7.12;96.51
55675;BME280;41562;44.330;23.802;2023-03-16T05:56:00;99677.94;;;6.97;98.36
55675;BME280;41562;44.330;23.802;2023-03-16T05:58:28;99676.63;;;7.04;100.00
55675;BME280;41562;44.330;23.802;2023-03-16T06:00:58;99680.59;;;6.97;98.95
55675;BME280;41562;44.330;23.802;2023-03-16T06:03:29;99680.34;;;6.93;98.79
55675;BME280;41562;44.330;23.802;2023-03-16T06:05:56;99689.63;;;6.96;99.72
55675;BME280;41562;44.330;23.802;2023-03-16T06:08:24;99689.94;;;7.04;100.00
55675;BME280;41562;44.330;23.802;2023-03-16T06:10:51;99692.91;;;7.13;100.00
55675;BME280;41562;44.330;23.802;2023-03-16T06:13:18;99697.41;;;7.07;99.72
55675;BME280;41562;44.330;23.802;2023-03-16T06:15:46;99700.84;;;7.08;98.95
55675;BME280;41562;44.330;23.802;2023-03-16T06:18:13;99701.94;;;7.12;98.89
55675;BME280;41562;44.330;23.802;2023-03-16T06:20:40;99707.22;;;7.07;99.83
55675;BME280;41562;44.330;23.802;2023-03-16T06:23:08;99710.94;;;7.11;99.43
55675;BME280;41562;44.330;23.802;2023-03-16T06:25:43;99708.28;;;7.01;99.20
55675;BME280;41562;44.330;23.802;2023-03-16T06:28:15;99708.28;;;7.01;100.00
55675;BME280;41562;44.330;23.802;2023-03-16T06:30:43;99716.28;;;7.16;100.00
55675;BME280;41562;44.330;23.802;2023-03-16T06:33:28;99724.00;;;7.17;99.34
55675;BME280;41562;44.330;23.802;2023-03-16T06:35:57;99726.66;;;7.22;99.60
55675;BME280;41562;44.330;23.802;2023-03-16T06:38:24;99732.28;;;7.26;100.00
55675;BME280;41562;44.330;23.802;2023-03-16T06:40:52;99732.06;;;7.43;100.00
55675;BME280;41562;44.330;23.802;2023-03-16T06:43:22;99737.84;;;7.24;100.00
55675;BME280;41562;44.330;23.802;2023-03-16T06:45:50;99733.84;;;7.17;100.00
55675;BME280;41562;44.330;23.802;2023-03-16T06:48:17;99734.94;;;7.31;99.78
55675;BME280;41562;44.330;23.802;2023-03-16T06:50:46;99749.88;;;7.37;100.00
55675;BME280;41562;44.330;23.802;2023-03-16T06:53:15;99747.22;;;7.42;98.72
55675;BME280;41562;44.330;23.802;2023-03-16T06:55:42;99756.22;;;7.26;100.00
55675;BME280;41562;44.330;23.802;2023-03-16T06:58:17;99753.56;;;7.26;100.00
55675;BME280;41562;44.330;23.802;2023-03-16T07:00:44;99758.56;;;7.12;100.00
55675;BME280;41562;44.330;23.802;2023-03-16T07:03:15;99765.06;;;6.90;100.00
55675;BME280;41562;44.330;23.802;2023-03-16T07:05:43;99770.94;;;6.92;100.00
55675;BME280;41562;44.330;23.802;2023-03-16T07:08:16;99775.69;;;6.90;100.00
55675;BME280;41562;44.330;23.802;2023-03-16T07:10:58;99778.72;;;7.08;100.00
55675;BME280;41562;44.330;23.802;2023-03-16T07:13:26;99768.94;;;7.19;100.00
55675;BME280;41562;44.330;23.802;2023-03-16T07:15:58;99777.88;;;6.98;100.00
55675;BME280;41562;44.330;23.802;2023-03-16T07:18:32;99771.06;;;7.22;100.00
55675;BME280;41562;44.330;23.802;2023-03-16T07:21:01;99776.13;;;7.23;100.00
55675;BME280;41562;44.330;23.802;2023-03-16T07:23:31;99778.06;;;7.38;100.00
55675;BME280;41562;44.330;23.802;2023-03-16T07:26:00;99784.19;;;7.39;100.00
55675;BME280;41562;44.330;23.802;2023-03-16T07:28:31;99793.94;;;7.23;100.00
55675;BME280;41562;44.330;23.802;2023-03-16T07:31:01;99787.47;;;7.04;100.00
55675;BME280;41562;44.330;23.802;2023-03-16T07:33:33;99794.94;;;7.07;100.00
55675;BME280;41562;44.330;23.802;2023-03-16T07:36:01;99799.72;;;7.05;100.00
55675;BME280;41562;44.330;23.802;2023-03-16T07:38:32;99798.19;;;7.14;100.00
55675;BME280;41562;44.330;23.802;2023-03-16T07:41:00;99796.25;;;7.04;100.00
55675;BME280;41562;44.330;23.802;2023-03-16T07:43:27;99803.88;;;6.91;100.00
55675;BME280;41562;44.330;23.802;2023-03-16T07:45:57;99799.59;;;6.84;100.00
55675;BME280;41562;44.330;23.802;2023-03-16T07:48:25;99809.84;;;7.08;100.00
55675;BME280;41562;44.330;23.802;2023-03-16T07:51:04;99802.34;;;7.00;100.00
55675;BME280;41562;44.330;23.802;2023-03-16T07:53:37;99809.50;;;6.94;100.00
55675;BME280;41562;44.330;23.802;2023-03-16T07:56:05;99813.19;;;6.88;100.00
55675;BME280;41562;44.330;23.802;2023-03-16T07:58:33;99816.72;;;7.04;100.00
55675;BME280;41562;44.330;23.802;2023-03-16T08:01:00;99818.06;;;7.01;100.00
55675;BME280;41562;44.330;23.802;2023-03-16T08:03:28;99820.84;;;6.84;100.00
55675;BME280;41562;44.330;23.802;2023-03-16T08:05:56;99827.41;;;7.14;100.00
55675;BME280;41562;44.330;23.802;2023-03-16T08:08:26;99830.47;;;6.91;100.00
55675;BME280;41562;44.330;23.802;2023-03-16T08:10:54;99831.63;;;7.05;100.00
55675;BME280;41562;44.330;23.802;2023-03-16T08:13:25;99832.84;;;6.87;100.00
55675;BME280;41562;44.330;23.802;2023-03-16T08:15:52;99824.00;;;6.76;100.00
55675;BME280;41562;44.330;23.802;2023-03-16T08:18:19;99836.56;;;6.91;100.00
55675;BME280;41562;44.330;23.802;2023-03-16T08:20:50;99845.38;;;6.97;100.00
55675;BME280;41562;44.330;23.802;2023-03-16T08:23:20;99846.94;;;6.88;100.00
55675;BME280;41562;44.330;23.802;2023-03-16T08:25:52;99845.53;;;7.22;100.00
55675;BME280;41562;44.330;23.802;2023-03-16T08:28:20;99844.34;;;7.03;100.00
55675;BME280;41562;44.330;23.802;2023-03-16T08:30:49;99855.09;;;7.23;100.00
55675;BME280;41562;44.330;23.802;2023-03-16T08:33:21;99855.06;;;7.13;100.00
55675;BME280;41562;44.330;23.802;2023-03-16T08:35:58;99851.88;;;7.16;100.00
55675;BME280;41562;44.330;23.802;2023-03-16T08:38:25;99855.56;;;7.10;100.00
55675;BME280;41562;44.330;23.802;2023-03-16T08:40:53;99863.63;;;7.20;100.00
55675;BME280;41562;44.330;23.802;2023-03-16T08:43:29;99866.94;;;7.00;100.00
55675;BME280;41562;44.330;23.802;2023-03-16T08:45:57;99862.50;;;6.74;100.00
55675;BME280;41562;44.330;23.802;2023-03-16T08:48:25;99869.19;;;6.76;100.00
55675;BME280;41562;44.330;23.802;2023-03-16T08:50:52;99871.13;;;6.91;100.00
55675;BME280;41562;44.330;23.802;2023-03-16T08:53:19;99871.09;;;6.86;100.00
55675;BME280;41562;44.330;23.802;2023-03-16T08:55:50;99878.28;;;6.91;100.00
55675;BME280;41562;44.330;23.802;2023-03-16T08:58:17;99874.31;;;6.88;100.00
55675;BME280;41562;44.330;23.802;2023-03-16T09:00:44;99882.50;;;6.81;100.00
55675;BME280;41562;44.330;23.802;2023-03-16T09:03:14;99885.16;;;6.81;100.00
55675;BME280;41562;44.330;23.802;2023-03-16T09:05:41;99886.69;;;6.77;100.00
55675;BME280;41562;44.330;23.802;2023-03-16T09:08:08;99887.19;;;6.69;100.00
55675;BME280;41562;44.330;23.802;2023-03-16T09:10:37;99887.28;;;6.84;100.00
55675;BME280;41562;44.330;23.802;2023-03-16T09:13:04;99887.25;;;6.79;100.00
55675;BME280;41562;44.330;23.802;2023-03-16T09:15:32;99887.31;;;6.90;100.00
55675;BME280;41562;44.330;23.802;2023-03-16T09:17:59;99887.00;;;6.81;100.00
55675;BME280;41562;44.330;23.802;2023-03-16T09:20:26;99894.34;;;7.06;100.00
55675;BME280;41562;44.330;23.802;2023-03-16T09:23:01;99895.25;;;6.84;100.00
55675;BME280;41562;44.330;23.802;2023-03-16T09:25:28;99897.38;;;6.82;100.00
55675;BME280;41562;44.330;23.802;2023-03-16T09:27:55;99897.31;;;6.77;100.00
55675;BME280;41562;44.330;23.802;2023-03-16T09:30:23;99900.72;;;7.05;100.00
55675;BME280;41562;44.330;23.802;2023-03-16T09:32:50;99907.44;;;7.12;100.00
55675;BME280;41562;44.330;23.802;2023-03-16T09:35:18;99914.19;;;7.30;100.00
55675;BME280;41562;44.330;23.802;2023-03-16T09:37:45;99911.34;;;7.05;100.00
55675;BME280;41562;44.330;23.802;2023-03-16T09:40:31;99914.63;;;7.17;100.00
55675;BME280;41562;44.330;23.802;2023-03-16T09:45:41;99917.41;;;6.95;100.00
55675;BME280;41562;44.330;23.802;2023-03-16T09:48:14;99922.03;;;7.10;100.00
55675;BME280;41562;44.330;23.802;2023-03-16T09:50:42;99926.31;;;7.16;100.00
55675;BME280;41562;44.330;23.802;2023-03-16T09:53:35;99925.34;;;6.90;100.00
55675;BME280;41562;44.330;23.802;2023-03-16T09:56:09;99928.34;;;7.04;100.00
55675;BME280;41562;44.330;23.802;2023-03-16T09:58:37;99934.25;;;7.11;100.00
55675;BME280;41562;44.330;23.802;2023-03-16T10:04:08;99929.91;;;7.37;100.00
55675;BME280;41562;44.330;23.802;2023-03-16T10:06:57;99936.19;;;7.20;100.00
55675;BME280;41562;44.330;23.802;2023-03-16T10:09:40;99937.09;;;7.41;100.00
55675;BME280;41562;44.330;23.802;2023-03-16T10:12:11;99935.84;;;7.54;100.00
55675;BME280;41562;44.330;23.802;2023-03-16T10:14:58;99931.34;;;7.54;100.00
55675;BME280;41562;44.330;23.802;2023-03-16T10:17:50;99933.75;;;7.56;100.00
55675;BME280;41562;44.330;23.802;2023-03-16T10:20:21;99937.78;;;7.68;100.00
55675;BME280;41562;44.330;23.802;2023-03-16T10:22:51;99941.00;;;7.71;100.00
55675;BME280;41562;44.330;23.802;2023-03-16T10:27:46;99943.72;;;7.86;100.00
55675;BME280;41562;44.330;23.802;2023-03-16T10:30:26;99955.38;;;7.70;100.00
55675;BME280;41562;44.330;23.802;2023-03-16T10:32:55;99946.84;;;7.67;100.00
55675;BME280;41562;44.330;23.802;2023-03-16T10:35:47;99949.66;;;7.46;100.00
55675;BME280;41562;44.330;23.802;2023-03-16T10:38:57;99950.22;;;7.53;100.00
55675;BME280;41562;44.330;23.802;2023-03-16T10:41:38;99944.84;;;7.43;100.00
55675;BME280;41562;44.330;23.802;2023-03-16T10:44:24;99944.59;;;7.44;100.00
55675;BME280;41562;44.330;23.802;2023-03-16T10:47:01;99947.47;;;7.38;100.00
55675;BME280;41562;44.330;23.802;2023-03-16T10:49:37;99947.75;;;7.41;100.00
55675;BME280;41562;44.330;23.802;2023-03-16T10:54:40;99955.38;;;7.75;100.00
55675;BME280;41562;44.330;23.802;2023-03-16T10:57:24;99953.22;;;7.72;100.00
55675;BME280;41562;44.330;23.802;2023-03-16T10:59:54;99952.13;;;7.57;100.00
55675;BME280;41562;44.330;23.802;2023-03-16T11:02:30;99948.78;;;7.35;100.00
55675;BME280;41562;44.330;23.802;2023-03-16T11:04:58;99949.00;;;7.28;100.00
55675;BME280;41562;44.330;23.802;2023-03-16T11:07:25;99952.13;;;7.57;100.00
55675;BME280;41562;44.330;23.802;2023-03-16T11:09:54;99948.84;;;7.45;100.00
55675;BME280;41562;44.330;23.802;2023-03-16T11:12:28;99954.78;;;7.62;100.00
55675;BME280;41562;44.330;23.802;2023-03-16T11:15:03;99951.66;;;7.76;100.00
55675;BME280;41562;44.330;23.802;2023-03-16T11:17:45;99948.41;;;7.63;100.00
55675;BME280;41562;44.330;23.802;2023-03-16T11:20:22;99953.75;;;7.63;100.00
55675;BME280;41562;44.330;23.802;2023-03-16T11:22:51;99955.28;;;7.59;100.00
55675;BME280;41562;44.330;23.802;2023-03-16T11:25:27;99949.47;;;7.62;100.00
55675;BME280;41562;44.330;23.802;2023-03-16T11:30:42;99953.16;;;7.56;100.00
55675;BME280;41562;44.330;23.802;2023-03-16T11:33:13;99949.47;;;7.62;100.00
55675;BME280;41562;44.330;23.802;2023-03-16T11:41:47;99949.91;;;7.44;100.00
55675;BME280;41562;44.330;23.802;2023-03-16T11:44:35;99947.25;;;7.44;100.00
55675;BME280;41562;44.330;23.802;2023-03-16T11:49:46;99955.59;;;7.63;100.00
55675;BME280;41562;44.330;23.802;2023-03-16T11:55:47;99950.34;;;7.26;100.00
55675;BME280;41562;44.330;23.802;2023-03-16T12:04:04;99957.47;;;7.20;100.00
55675;BME280;41562;44.330;23.802;2023-03-16T12:06:50;99967.16;;;7.42;100.00
55675;BME280;41562;44.330;23.802;2023-03-16T12:12:29;99962.59;;;7.32;100.00
55675;BME280;41562;44.330;23.802;2023-03-16T12:17:36;99975.22;;;8.04;100.00
55675;BME280;41562;44.330;23.802;2023-03-16T12:20:17;99972.97;;;7.76;100.00
55675;BME280;41562;44.330;23.802;2023-03-16T12:22:57;99973.41;;;7.57;100.00
55675;BME280;41562;44.330;23.802;2023-03-16T12:25:30;99971.22;;;7.49;100.00
55675;BME280;41562;44.330;23.802;2023-03-16T12:28:01;99969.97;;;7.62;100.00
55675;BME280;41562;44.330;23.802;2023-03-16T12:30:34;99983.28;;;7.67;100.00
55675;BME280;41562;44.330;23.802;2023-03-16T12:33:24;99973.25;;;7.84;100.00
55675;BME280;41562;44.330;23.802;2023-03-16T12:38:50;99978.59;;;7.37;100.00
55675;BME280;41562;44.330;23.802;2023-03-16T12:44:14;99989.72;;;7.34;100.00
55675;BME280;41562;44.330;23.802;2023-03-16T12:49:15;99987.34;;;7.33;100.00
55675;BME280;41562;44.330;23.802;2023-03-16T12:51:43;99989.44;;;7.31;100.00
55675;BME280;41562;44.330;23.802;2023-03-16T12:54:21;99985.28;;;7.40;100.00
55675;BME280;41562;44.330;23.802;2023-03-16T12:56:50;99985.19;;;7.30;100.00
55675;BME280;41562;44.330;23.802;2023-03-16T12:59:22;99988.34;;;7.63;100.00
55675;BME280;41562;44.330;23.802;2023-03-16T13:01:57;99989.72;;;7.76;100.00
55675;BME280;41562;44.330;23.802;2023-03-16T13:04:37;99988.09;;;7.70;100.00
55675;BME280;41562;44.330;23.802;2023-03-16T13:07:14;99988.34;;;7.68;100.00
55675;BME280;41562;44.330;23.802;2023-03-16T13:09:50;99991.03;;;7.74;100.00
55675;BME280;41562;44.330;23.802;2023-03-16T13:14:53;99995.47;;;7.21;100.00
55675;BME280;41562;44.330;23.802;2023-03-16T13:17:23;100001.91;;;7.67;100.00
55675;BME280;41562;44.330;23.802;2023-03-16T13:20:31;99990.38;;;7.51;100.00
55675;BME280;41562;44.330;23.802;2023-03-16T13:23:19;100003.13;;;7.49;100.00
55675;BME280;41562;44.330;23.802;2023-03-16T13:28:31;100012.13;;;7.06;100.00
55675;BME280;41562;44.330;23.802;2023-03-16T13:30:59;100010.75;;;7.04;100.00
55675;BME280;41562;44.330;23.802;2023-03-16T13:33:30;100009.25;;;7.13;100.00
55675;BME280;41562;44.330;23.802;2023-03-16T13:35:59;100012.91;;;7.02;100.00
55675;BME280;41562;44.330;23.802;2023-03-16T13:38:27;100024.50;;;6.96;100.00
55675;BME280;41562;44.330;23.802;2023-03-16T13:40:57;100011.78;;;7.30;100.00
55675;BME280;41562;44.330;23.802;2023-03-16T13:43:29;100022.00;;;7.11;100.00
55675;BME280;41562;44.330;23.802;2023-03-16T13:45:57;100011.75;;;7.24;100.00
55675;BME280;41562;44.330;23.802;2023-03-16T13:48:25;100022.63;;;7.23;100.00
55675;BME280;41562;44.330;23.802;2023-03-16T13:50:54;100027.16;;;7.27;100.00
55675;BME280;41562;44.330;23.802;2023-03-16T13:53:23;100028.50;;;7.25;100.00
55675;BME280;41562;44.330;23.802;2023-03-16T13:55:51;100026.34;;;7.22;100.00
55675;BME280;41562;44.330;23.802;2023-03-16T13:58:21;100031.94;;;7.20;100.00
55675;BME280;41562;44.330;23.802;2023-03-16T14:00:54;100036.34;;;7.10;100.00
55675;BME280;41562;44.330;23.802;2023-03-16T14:03:30;100037.56;;;7.29;100.00
55675;BME280;41562;44.330;23.802;2023-03-16T14:06:16;100035.91;;;7.23;100.00
55675;BME280;41562;44.330;23.802;2023-03-16T14:08:52;100034.28;;;7.17;100.00
55675;BME280;41562;44.330;23.802;2023-03-16T14:11:21;100032.59;;;7.38;100.00